sensor_id;sensor_type;location;lat;lon;timestamp;pressure;altitude;pressure_sealevel;temperature
79488;BMP180;68949;53.176;18.088;2023-09-08T00:00:19;101326.20;;;
79488;BMP180;68949;53.176;18.088;2023-09-08T00:03:06;101329.60;;;
79488;BMP180;68949;53.176;18.088;2023-09-08T00:05:33;101331.40;;;
79488;BMP180;68949;53.176;18.088;2023-09-08T00:08:00;101330.40;;;
79488;BMP180;68949;53.176;18.088;2023-09-08T00:10:26;101331.40;;;
79488;BMP180;68949;53.176;18.088;2023-09-08T00:12:53;101331.80;;;
79488;BMP180;68949;53.176;18.088;2023-09-08T00:15:19;101328.20;;;
79488;BMP180;68949;53.176;18.088;2023-09-08T00:17:46;101327.00;;;
79488;BMP180;68949;53.176;18.088;2023-09-08T00:20:13;101323.00;;;
79488;BMP180;68949;53.176;18.088;2023-09-08T00:22:41;101323.20;;;
79488;BMP180;68949;53.176;18.088;2023-09-08T00:25:08;101323.20;;;
79488;BMP180;68949;53.176;18.088;2023-09-08T00:27:34;101320.80;;;
79488;BMP180;68949;53.176;18.088;2023-09-08T00:30:01;101324.40;;;
79488;BMP180;68949;53.176;18.088;2023-09-08T00:32:28;101322.60;;;
79488;BMP180;68949;53.176;18.088;2023-09-08T00:34:55;101320.60;;;
79488;BMP180;68949;53.176;18.088;2023-09-08T00:37:22;101322.80;;;
79488;BMP180;68949;53.176;18.088;2023-09-08T00:39:48;101321.20;;;
79488;BMP180;68949;53.176;18.088;2023-09-08T00:42:15;101322.00;;;
79488;BMP180;68949;53.176;18.088;2023-09-08T00:44:41;101326.00;;;
79488;BMP180;68949;53.176;18.088;2023-09-08T00:47:08;101330.40;;;
79488;BMP180;68949;53.176;18.088;2023-09-08T00:49:35;101329.80;;;
79488;BMP180;68949;53.176;18.088;2023-09-08T00:52:02;101321.40;;;
79488;BMP180;68949;53.176;18.088;2023-09-08T00:54:29;101322.00;;;
79488;BMP180;68949;53.176;18.088;2023-09-08T00:56:57;101322.20;;;
79488;BMP180;68949;53.176;18.088;2023-09-08T00:59:24;101321.60;;;
79488;BMP180;68949;53.176;18.088;2023-09-08T01:01:52;101320.80;;;
79488;BMP180;68949;53.176;18.088;2023-09-08T01:04:20;101310.20;;;
79488;BMP180;68949;53.176;18.088;2023-09-08T01:06:47;101311.60;;;
79488;BMP180;68949;53.176;18.088;2023-09-08T01:09:14;101310.80;;;
79488;BMP180;68949;53.176;18.088;2023-09-08T01:11:41;101310.20;;;
79488;BMP180;68949;53.176;18.088;2023-09-08T01:14:12;101310.80;;;
79488;BMP180;68949;53.176;18.088;2023-09-08T01:16:39;101310.80;;;
79488;BMP180;68949;53.176;18.088;2023-09-08T01:19:13;101311.00;;;
79488;BMP180;68949;53.176;18.088;2023-09-08T01:22:11;101313.40;;;
79488;BMP180;68949;53.176;18.088;2023-09-08T01:25:28;101317.20;;;
79488;BMP180;68949;53.176;18.088;2023-09-08T01:28:00;101308.20;;;
79488;BMP180;68949;53.176;18.088;2023-09-08T01:30:29;101305.80;;;
79488;BMP180;68949;53.176;18.088;2023-09-08T01:33:00;101309.40;;;
79488;BMP180;68949;53.176;18.088;2023-09-08T01:35:27;101299.20;;;
79488;BMP180;68949;53.176;18.088;2023-09-08T01:37:53;101300.80;;;
79488;BMP180;68949;53.176;18.088;2023-09-08T01:40:20;101300.60;;;
79488;BMP180;68949;53.176;18.088;2023-09-08T01:42:48;101303.00;;;
79488;BMP180;68949;53.176;18.088;2023-09-08T01:45:15;101308.00;;;
79488;BMP180;68949;53.176;18.088;2023-09-08T01:47:42;101304.00;;;
79488;BMP180;68949;53.176;18.088;2023-09-08T01:50:09;101299.40;;;
79488;BMP180;68949;53.176;18.088;2023-09-08T01:52:35;101299.00;;;
79488;BMP180;68949;53.176;18.088;2023-09-08T01:55:02;101288.60;;;
79488;BMP180;68949;53.176;18.088;2023-09-08T01:57:29;101287.40;;;
79488;BMP180;68949;53.176;18.088;2023-09-08T01:59:56;101289.20;;;
79488;BMP180;68949;53.176;18.088;2023-09-08T02:02:22;101291.00;;;
79488;BMP180;68949;53.176;18.088;2023-09-08T02:04:49;101291.40;;;
79488;BMP180;68949;53.176;18.088;2023-09-08T02:07:16;101296.60;;;
79488;BMP180;68949;53.176;18.088;2023-09-08T02:09:42;101298.60;;;
79488;BMP180;68949;53.176;18.088;2023-09-08T02:12:09;101296.00;;;
79488;BMP180;68949;53.176;18.088;2023-09-08T02:14:35;101296.20;;;
79488;BMP180;68949;53.176;18.088;2023-09-08T02:17:02;101299.20;;;
79488;BMP180;68949;53.176;18.088;2023-09-08T02:19:29;101298.00;;;
79488;BMP180;68949;53.176;18.088;2023-09-08T02:21:56;101287.20;;;
79488;BMP180;68949;53.176;18.088;2023-09-08T02:24:23;101285.60;;;
79488;BMP180;68949;53.176;18.088;2023-09-08T02:26:49;101286.80;;;
79488;BMP180;68949;53.176;18.088;2023-09-08T02:29:17;101286.20;;;
79488;BMP180;68949;53.176;18.088;2023-09-08T02:31:44;101288.20;;;
79488;BMP180;68949;53.176;18.088;2023-09-08T02:34:11;101280.80;;;
79488;BMP180;68949;53.176;18.088;2023-09-08T02:36:39;101277.60;;;
79488;BMP180;68949;53.176;18.088;2023-09-08T02:39:07;101276.40;;;
79488;BMP180;68949;53.176;18.088;2023-09-08T02:41:34;101277.60;;;
79488;BMP180;68949;53.176;18.088;2023-09-08T02:44:02;101275.80;;;
79488;BMP180;68949;53.176;18.088;2023-09-08T02:46:28;101270.00;;;
79488;BMP180;68949;53.176;18.088;2023-09-08T02:48:55;101269.60;;;
79488;BMP180;68949;53.176;18.088;2023-09-08T02:51:22;101262.80;;;
79488;BMP180;68949;53.176;18.088;2023-09-08T02:53:49;101262.80;;;
79488;BMP180;68949;53.176;18.088;2023-09-08T02:56:16;101263.40;;;
79488;BMP180;68949;53.176;18.088;2023-09-08T02:58:42;101263.00;;;
79488;BMP180;68949;53.176;18.088;2023-09-08T03:01:13;101262.40;;;
79488;BMP180;68949;53.176;18.088;2023-09-08T03:03:43;101258.60;;;
79488;BMP180;68949;53.176;18.088;2023-09-08T03:06:13;101258.40;;;
79488;BMP180;68949;53.176;18.088;2023-09-08T03:08:41;101257.00;;;
79488;BMP180;68949;53.176;18.088;2023-09-08T03:11:08;101249.20;;;
79488;BMP180;68949;53.176;18.088;2023-09-08T03:13:35;101252.20;;;
79488;BMP180;68949;53.176;18.088;2023-09-08T03:16:07;101254.00;;;
79488;BMP180;68949;53.176;18.088;2023-09-08T03:18:36;101252.80;;;
79488;BMP180;68949;53.176;18.088;2023-09-08T03:21:04;101251.80;;;
79488;BMP180;68949;53.176;18.088;2023-09-08T03:23:41;101254.00;;;
79488;BMP180;68949;53.176;18.088;2023-09-08T03:26:09;101247.60;;;
79488;BMP180;68949;53.176;18.088;2023-09-08T03:28:37;101247.00;;;
79488;BMP180;68949;53.176;18.088;2023-09-08T03:31:06;101246.60;;;
79488;BMP180;68949;53.176;18.088;2023-09-08T03:33:34;101237.60;;;
79488;BMP180;68949;53.176;18.088;2023-09-08T03:36:01;101244.80;;;
79488;BMP180;68949;53.176;18.088;2023-09-08T03:38:29;101248.80;;;
79488;BMP180;68949;53.176;18.088;2023-09-08T03:40:56;101242.20;;;
79488;BMP180;68949;53.176;18.088;2023-09-08T03:43:23;101247.00;;;
79488;BMP180;68949;53.176;18.088;2023-09-08T03:45:49;101239.40;;;
79488;BMP180;68949;53.176;18.088;2023-09-08T03:48:16;101242.20;;;
79488;BMP180;68949;53.176;18.088;2023-09-08T03:50:43;101240.40;;;
79488;BMP180;68949;53.176;18.088;2023-09-08T03:53:13;101240.20;;;
79488;BMP180;68949;53.176;18.088;2023-09-08T03:55:39;101240.00;;;
79488;BMP180;68949;53.176;18.088;2023-09-08T03:58:06;101246.80;;;
79488;BMP180;68949;53.176;18.088;2023-09-08T04:00:34;101245.80;;;
79488;BMP180;68949;53.176;18.088;2023-09-08T04:03:01;101249.80;;;
79488;BMP180;68949;53.176;18.088;2023-09-08T04:05:29;101247.80;;;
79488;BMP180;68949;53.176;18.088;2023-09-08T04:07:56;101251.80;;;
79488;BMP180;68949;53.176;18.088;2023-09-08T04:10:23;101252.20;;;
79488;BMP180;68949;53.176;18.088;2023-09-08T04:12:50;101251.60;;;
79488;BMP180;68949;53.176;18.088;2023-09-08T04:15:16;101250.20;;;
79488;BMP180;68949;53.176;18.088;2023-09-08T04:17:43;101251.60;;;
79488;BMP180;68949;53.176;18.088;2023-09-08T04:20:10;101250.60;;;
79488;BMP180;68949;53.176;18.088;2023-09-08T04:22:37;101249.60;;;
79488;BMP180;68949;53.176;18.088;2023-09-08T04:25:04;101244.00;;;
79488;BMP180;68949;53.176;18.088;2023-09-08T04:27:32;101241.40;;;
79488;BMP180;68949;53.176;18.088;2023-09-08T04:30:07;101240.00;;;
79488;BMP180;68949;53.176;18.088;2023-09-08T04:32:34;101239.80;;;
79488;BMP180;68949;53.176;18.088;2023-09-08T04:35:00;101239.40;;;
79488;BMP180;68949;53.176;18.088;2023-09-08T04:37:27;101244.00;;;
79488;BMP180;68949;53.176;18.088;2023-09-08T04:39:54;101244.00;;;
79488;BMP180;68949;53.176;18.088;2023-09-08T04:42:21;101239.40;;;
79488;BMP180;68949;53.176;18.088;2023-09-08T04:44:49;101237.40;;;
79488;BMP180;68949;53.176;18.088;2023-09-08T04:47:16;101237.80;;;
79488;BMP180;68949;53.176;18.088;2023-09-08T04:49:43;101245.00;;;
79488;BMP180;68949;53.176;18.088;2023-09-08T04:52:11;101246.20;;;
79488;BMP180;68949;53.176;18.088;2023-09-08T04:54:38;101242.40;;;
79488;BMP180;68949;53.176;18.088;2023-09-08T04:57:05;101242.20;;;
79488;BMP180;68949;53.176;18.088;2023-09-08T04:59:32;101242.60;;;
79488;BMP180;68949;53.176;18.088;2023-09-08T05:01:59;101242.00;;;
79488;BMP180;68949;53.176;18.088;2023-09-08T05:04:26;101240.60;;;
79488;BMP180;68949;53.176;18.088;2023-09-08T05:06:53;101249.00;;;
79488;BMP180;68949;53.176;18.088;2023-09-08T05:09:19;101249.00;;;
79488;BMP180;68949;53.176;18.088;2023-09-08T05:11:46;101243.40;;;
79488;BMP180;68949;53.176;18.088;2023-09-08T05:14:13;101251.20;;;
79488;BMP180;68949;53.176;18.088;2023-09-08T05:16:40;101245.40;;;
79488;BMP180;68949;53.176;18.088;2023-09-08T05:19:23;101246.80;;;
79488;BMP180;68949;53.176;18.088;2023-09-08T05:21:51;101248.80;;;
79488;BMP180;68949;53.176;18.088;2023-09-08T05:24:19;101250.00;;;
79488;BMP180;68949;53.176;18.088;2023-09-08T05:26:47;101247.00;;;
79488;BMP180;68949;53.176;18.088;2023-09-08T05:29:14;101248.20;;;
79488;BMP180;68949;53.176;18.088;2023-09-08T05:31:41;101249.60;;;
79488;BMP180;68949;53.176;18.088;2023-09-08T05:34:09;101247.60;;;
79488;BMP180;68949;53.176;18.088;2023-09-08T05:36:36;101250.60;;;
79488;BMP180;68949;53.176;18.088;2023-09-08T05:39:04;101245.80;;;
79488;BMP180;68949;53.176;18.088;2023-09-08T05:41:32;101246.20;;;
79488;BMP180;68949;53.176;18.088;2023-09-08T05:44:01;101251.80;;;
79488;BMP180;68949;53.176;18.088;2023-09-08T05:46:29;101252.40;;;
79488;BMP180;68949;53.176;18.088;2023-09-08T05:48:55;101255.60;;;
79488;BMP180;68949;53.176;18.088;2023-09-08T05:51:22;101253.00;;;
79488;BMP180;68949;53.176;18.088;2023-09-08T05:53:49;101249.00;;;
79488;BMP180;68949;53.176;18.088;2023-09-08T05:56:19;101250.40;;;
79488;BMP180;68949;53.176;18.088;2023-09-08T05:58:46;101257.40;;;
79488;BMP180;68949;53.176;18.088;2023-09-08T06:01:15;101242.60;;;
79488;BMP180;68949;53.176;18.088;2023-09-08T06:03:42;101240.80;;;
79488;BMP180;68949;53.176;18.088;2023-09-08T06:06:09;101242.40;;;
79488;BMP180;68949;53.176;18.088;2023-09-08T06:08:37;101246.80;;;
79488;BMP180;68949;53.176;18.088;2023-09-08T06:11:03;101242.20;;;
79488;BMP180;68949;53.176;18.088;2023-09-08T06:13:32;101236.20;;;
79488;BMP180;68949;53.176;18.088;2023-09-08T06:15:59;101230.00;;;
79488;BMP180;68949;53.176;18.088;2023-09-08T06:18:28;101230.00;;;
79488;BMP180;68949;53.176;18.088;2023-09-08T06:20:58;101219.60;;;
79488;BMP180;68949;53.176;18.088;2023-09-08T06:23:25;101220.00;;;
79488;BMP180;68949;53.176;18.088;2023-09-08T06:25:56;101221.20;;;
79488;BMP180;68949;53.176;18.088;2023-09-08T06:28:27;101219.40;;;
79488;BMP180;68949;53.176;18.088;2023-09-08T06:30:54;101215.00;;;
79488;BMP180;68949;53.176;18.088;2023-09-08T06:33:21;101214.40;;;
79488;BMP180;68949;53.176;18.088;2023-09-08T06:35:49;101214.40;;;
79488;BMP180;68949;53.176;18.088;2023-09-08T06:38:16;101205.80;;;
79488;BMP180;68949;53.176;18.088;2023-09-08T06:40:43;101208.40;;;
79488;BMP180;68949;53.176;18.088;2023-09-08T06:43:09;101210.00;;;
79488;BMP180;68949;53.176;18.088;2023-09-08T06:45:42;101208.60;;;
79488;BMP180;68949;53.176;18.088;2023-09-08T06:48:09;101198.60;;;
79488;BMP180;68949;53.176;18.088;2023-09-08T06:50:36;101198.00;;;
79488;BMP180;68949;53.176;18.088;2023-09-08T06:53:03;101196.40;;;
79488;BMP180;68949;53.176;18.088;2023-09-08T06:55:29;101200.80;;;
79488;BMP180;68949;53.176;18.088;2023-09-08T06:57:57;101192.80;;;
79488;BMP180;68949;53.176;18.088;2023-09-08T07:00:24;101188.00;;;
79488;BMP180;68949;53.176;18.088;2023-09-08T07:02:51;101189.80;;;
79488;BMP180;68949;53.176;18.088;2023-09-08T07:05:18;101192.80;;;
79488;BMP180;68949;53.176;18.088;2023-09-08T07:07:44;101191.60;;;
79488;BMP180;68949;53.176;18.088;2023-09-08T07:10:12;101187.80;;;
79488;BMP180;68949;53.176;18.088;2023-09-08T07:12:39;101180.40;;;
79488;BMP180;68949;53.176;18.088;2023-09-08T07:15:06;101176.40;;;
79488;BMP180;68949;53.176;18.088;2023-09-08T07:17:33;101176.80;;;
79488;BMP180;68949;53.176;18.088;2023-09-08T07:19:59;101165.80;;;
79488;BMP180;68949;53.176;18.088;2023-09-08T07:22:26;101171.40;;;
79488;BMP180;68949;53.176;18.088;2023-09-08T07:24:53;101165.80;;;
79488;BMP180;68949;53.176;18.088;2023-09-08T07:27:19;101160.80;;;
79488;BMP180;68949;53.176;18.088;2023-09-08T07:29:47;101162.20;;;
79488;BMP180;68949;53.176;18.088;2023-09-08T07:32:18;101166.80;;;
79488;BMP180;68949;53.176;18.088;2023-09-08T07:34:46;101165.00;;;
79488;BMP180;68949;53.176;18.088;2023-09-08T07:37:19;101163.00;;;
79488;BMP180;68949;53.176;18.088;2023-09-08T07:39:45;101160.20;;;
79488;BMP180;68949;53.176;18.088;2023-09-08T07:42:12;101163.00;;;
79488;BMP180;68949;53.176;18.088;2023-09-08T07:44:39;101166.20;;;
79488;BMP180;68949;53.176;18.088;2023-09-08T07:47:06;101155.20;;;
79488;BMP180;68949;53.176;18.088;2023-09-08T07:49:36;101164.60;;;
79488;BMP180;68949;53.176;18.088;2023-09-08T07:52:03;101153.60;;;
79488;BMP180;68949;53.176;18.088;2023-09-08T07:54:30;101165.60;;;
79488;BMP180;68949;53.176;18.088;2023-09-08T07:56:57;101151.00;;;
79488;BMP180;68949;53.176;18.088;2023-09-08T07:59:24;101137.60;;;
79488;BMP180;68949;53.176;18.088;2023-09-08T08:01:50;101144.20;;;
79488;BMP180;68949;53.176;18.088;2023-09-08T08:04:17;101143.60;;;
79488;BMP180;68949;53.176;18.088;2023-09-08T08:06:43;101134.80;;;
79488;BMP180;68949;53.176;18.088;2023-09-08T08:09:10;101135.40;;;
79488;BMP180;68949;53.176;18.088;2023-09-08T08:11:37;101132.40;;;
79488;BMP180;68949;53.176;18.088;2023-09-08T08:14:04;101137.40;;;
79488;BMP180;68949;53.176;18.088;2023-09-08T08:16:30;101137.40;;;
79488;BMP180;68949;53.176;18.088;2023-09-08T08:18:57;101123.60;;;
79488;BMP180;68949;53.176;18.088;2023-09-08T08:21:23;101122.60;;;
79488;BMP180;68949;53.176;18.088;2023-09-08T08:23:50;101113.80;;;
79488;BMP180;68949;53.176;18.088;2023-09-08T08:26:17;101122.80;;;
79488;BMP180;68949;53.176;18.088;2023-09-08T08:28:45;101121.00;;;
79488;BMP180;68949;53.176;18.088;2023-09-08T08:31:11;101116.00;;;
79488;BMP180;68949;53.176;18.088;2023-09-08T08:33:41;101109.40;;;
79488;BMP180;68949;53.176;18.088;2023-09-08T08:36:09;101103.40;;;
79488;BMP180;68949;53.176;18.088;2023-09-08T08:38:36;101105.80;;;
79488;BMP180;68949;53.176;18.088;2023-09-08T08:41:04;101099.20;;;
79488;BMP180;68949;53.176;18.088;2023-09-08T08:43:32;101087.20;;;
79488;BMP180;68949;53.176;18.088;2023-09-08T08:46:00;101087.00;;;
79488;BMP180;68949;53.176;18.088;2023-09-08T08:48:29;101092.00;;;
79488;BMP180;68949;53.176;18.088;2023-09-08T08:50:57;101085.60;;;
79488;BMP180;68949;53.176;18.088;2023-09-08T08:53:26;101076.00;;;
79488;BMP180;68949;53.176;18.088;2023-09-08T08:55:56;101066.80;;;
79488;BMP180;68949;53.176;18.088;2023-09-08T08:58:26;101066.00;;;
79488;BMP180;68949;53.176;18.088;2023-09-08T09:00:54;101074.00;;;
79488;BMP180;68949;53.176;18.088;2023-09-08T09:03:27;101065.40;;;
79488;BMP180;68949;53.176;18.088;2023-09-08T09:05:56;101061.00;;;
79488;BMP180;68949;53.176;18.088;2023-09-08T09:08:24;101047.60;;;
79488;BMP180;68949;53.176;18.088;2023-09-08T09:10:51;101051.40;;;
79488;BMP180;68949;53.176;18.088;2023-09-08T09:13:19;101052.80;;;
79488;BMP180;68949;53.176;18.088;2023-09-08T09:15:46;101049.80;;;
79488;BMP180;68949;53.176;18.088;2023-09-08T09:18:13;101052.80;;;
79488;BMP180;68949;53.176;18.088;2023-09-08T09:20:53;101043.20;;;
79488;BMP180;68949;53.176;18.088;2023-09-08T09:23:34;101055.20;;;
79488;BMP180;68949;53.176;18.088;2023-09-08T09:26:03;101037.20;;;
79488;BMP180;68949;53.176;18.088;2023-09-08T09:28:33;101049.20;;;
79488;BMP180;68949;53.176;18.088;2023-09-08T09:30:59;101046.40;;;
79488;BMP180;68949;53.176;18.088;2023-09-08T09:33:27;101042.60;;;
79488;BMP180;68949;53.176;18.088;2023-09-08T09:35:54;101028.80;;;
79488;BMP180;68949;53.176;18.088;2023-09-08T09:38:21;101021.40;;;
79488;BMP180;68949;53.176;18.088;2023-09-08T09:40:48;101024.80;;;
79488;BMP180;68949;53.176;18.088;2023-09-08T09:43:16;101023.00;;;
79488;BMP180;68949;53.176;18.088;2023-09-08T09:45:44;101010.80;;;
79488;BMP180;68949;53.176;18.088;2023-09-08T09:48:11;100992.20;;;
79488;BMP180;68949;53.176;18.088;2023-09-08T09:50:42;100999.20;;;
79488;BMP180;68949;53.176;18.088;2023-09-08T09:53:16;100999.40;;;
79488;BMP180;68949;53.176;18.088;2023-09-08T09:55:45;100998.80;;;
79488;BMP180;68949;53.176;18.088;2023-09-08T09:58:12;100998.60;;;
79488;BMP180;68949;53.176;18.088;2023-09-08T10:00:39;100995.00;;;
79488;BMP180;68949;53.176;18.088;2023-09-08T10:03:14;101000.20;;;
79488;BMP180;68949;53.176;18.088;2023-09-08T10:05:41;100990.00;;;
79488;BMP180;68949;53.176;18.088;2023-09-08T10:08:08;100989.80;;;
79488;BMP180;68949;53.176;18.088;2023-09-08T10:10:36;100996.00;;;
79488;BMP180;68949;53.176;18.088;2023-09-08T10:13:06;100981.00;;;
79488;BMP180;68949;53.176;18.088;2023-09-08T10:15:35;100993.80;;;
79488;BMP180;68949;53.176;18.088;2023-09-08T10:18:05;100989.00;;;
79488;BMP180;68949;53.176;18.088;2023-09-08T10:20:34;100983.20;;;
79488;BMP180;68949;53.176;18.088;2023-09-08T10:23:16;100978.40;;;
79488;BMP180;68949;53.176;18.088;2023-09-08T10:25:50;100967.20;;;
79488;BMP180;68949;53.176;18.088;2023-09-08T10:28:25;100943.80;;;
79488;BMP180;68949;53.176;18.088;2023-09-08T10:30:52;100949.00;;;
79488;BMP180;68949;53.176;18.088;2023-09-08T10:33:20;100958.00;;;
79488;BMP180;68949;53.176;18.088;2023-09-08T10:35:47;100974.80;;;
79488;BMP180;68949;53.176;18.088;2023-09-08T10:38:33;100963.40;;;
79488;BMP180;68949;53.176;18.088;2023-09-08T10:43:43;100968.60;;;
79488;BMP180;68949;53.176;18.088;2023-09-08T10:46:22;100951.80;;;
79488;BMP180;68949;53.176;18.088;2023-09-08T10:48:49;100955.20;;;
79488;BMP180;68949;53.176;18.088;2023-09-08T10:51:19;100951.20;;;
79488;BMP180;68949;53.176;18.088;2023-09-08T10:53:49;100957.20;;;
79488;BMP180;68949;53.176;18.088;2023-09-08T10:56:18;100951.20;;;
79488;BMP180;68949;53.176;18.088;2023-09-08T10:58:51;100954.80;;;
79488;BMP180;68949;53.176;18.088;2023-09-08T11:01:22;100943.60;;;
79488;BMP180;68949;53.176;18.088;2023-09-08T11:03:53;100940.80;;;
79488;BMP180;68949;53.176;18.088;2023-09-08T11:06:21;100942.60;;;
79488;BMP180;68949;53.176;18.088;2023-09-08T11:09:07;100964.40;;;
79488;BMP180;68949;53.176;18.088;2023-09-08T11:11:35;100957.80;;;
79488;BMP180;68949;53.176;18.088;2023-09-08T11:14:03;100949.60;;;
79488;BMP180;68949;53.176;18.088;2023-09-08T11:16:30;100936.60;;;
79488;BMP180;68949;53.176;18.088;2023-09-08T11:18:59;100930.60;;;
79488;BMP180;68949;53.176;18.088;2023-09-08T11:21:27;100943.00;;;
79488;BMP180;68949;53.176;18.088;2023-09-08T11:24:04;100931.20;;;
79488;BMP180;68949;53.176;18.088;2023-09-08T11:26:35;100953.00;;;
79488;BMP180;68949;53.176;18.088;2023-09-08T11:29:02;100919.00;;;
79488;BMP180;68949;53.176;18.088;2023-09-08T11:31:29;100915.80;;;
79488;BMP180;68949;53.176;18.088;2023-09-08T11:33:56;100920.00;;;
79488;BMP180;68949;53.176;18.088;2023-09-08T11:36:23;100926.20;;;
79488;BMP180;68949;53.176;18.088;2023-09-08T11:38:49;100928.60;;;
79488;BMP180;68949;53.176;18.088;2023-09-08T11:41:16;100922.20;;;
79488;BMP180;68949;53.176;18.088;2023-09-08T11:43:44;100922.80;;;
79488;BMP180;68949;53.176;18.088;2023-09-08T11:46:11;100949.40;;;
79488;BMP180;68949;53.176;18.088;2023-09-08T11:48:38;100948.60;;;
79488;BMP180;68949;53.176;18.088;2023-09-08T11:51:07;100944.00;;;
79488;BMP180;68949;53.176;18.088;2023-09-08T11:53:36;100950.80;;;
79488;BMP180;68949;53.176;18.088;2023-09-08T11:56:04;100936.00;;;
79488;BMP180;68949;53.176;18.088;2023-09-08T11:58:32;100927.20;;;
79488;BMP180;68949;53.176;18.088;2023-09-08T12:01:00;100918.80;;;
79488;BMP180;68949;53.176;18.088;2023-09-08T12:03:26;100921.80;;;
79488;BMP180;68949;53.176;18.088;2023-09-08T12:05:53;100927.80;;;
79488;BMP180;68949;53.176;18.088;2023-09-08T12:08:20;100929.40;;;
79488;BMP180;68949;53.176;18.088;2023-09-08T12:10:47;100922.60;;;
79488;BMP180;68949;53.176;18.088;2023-09-08T12:13:21;100908.80;;;
79488;BMP180;68949;53.176;18.088;2023-09-08T12:15:49;100902.00;;;
79488;BMP180;68949;53.176;18.088;2023-09-08T12:18:15;100905.20;;;
79488;BMP180;68949;53.176;18.088;2023-09-08T12:20:44;100912.40;;;
79488;BMP180;68949;53.176;18.088;2023-09-08T12:23:21;100905.40;;;
79488;BMP180;68949;53.176;18.088;2023-09-08T12:25:51;100901.40;;;
79488;BMP180;68949;53.176;18.088;2023-09-08T12:28:21;100890.00;;;
79488;BMP180;68949;53.176;18.088;2023-09-08T12:30:49;100895.80;;;
79488;BMP180;68949;53.176;18.088;2023-09-08T12:33:16;100891.40;;;
79488;BMP180;68949;53.176;18.088;2023-09-08T12:35:47;100891.40;;;
79488;BMP180;68949;53.176;18.088;2023-09-08T12:38:14;100884.00;;;
79488;BMP180;68949;53.176;18.088;2023-09-08T12:40:41;100874.80;;;
79488;BMP180;68949;53.176;18.088;2023-09-08T12:43:08;100873.00;;;
79488;BMP180;68949;53.176;18.088;2023-09-08T12:45:34;100869.00;;;
79488;BMP180;68949;53.176;18.088;2023-09-08T12:48:02;100863.00;;;
79488;BMP180;68949;53.176;18.088;2023-09-08T12:50:30;100857.00;;;
79488;BMP180;68949;53.176;18.088;2023-09-08T12:52:57;100862.60;;;
79488;BMP180;68949;53.176;18.088;2023-09-08T12:55:24;100870.00;;;
79488;BMP180;68949;53.176;18.088;2023-09-08T12:57:51;100863.80;;;
79488;BMP180;68949;53.176;18.088;2023-09-08T13:00:22;100871.80;;;
79488;BMP180;68949;53.176;18.088;2023-09-08T13:02:52;100858.60;;;
79488;BMP180;68949;53.176;18.088;2023-09-08T13:05:18;100853.60;;;
79488;BMP180;68949;53.176;18.088;2023-09-08T13:07:45;100848.60;;;
79488;BMP180;68949;53.176;18.088;2023-09-08T13:10:12;100833.40;;;
79488;BMP180;68949;53.176;18.088;2023-09-08T13:12:38;100846.80;;;
79488;BMP180;68949;53.176;18.088;2023-09-08T13:15:06;100828.40;;;
79488;BMP180;68949;53.176;18.088;2023-09-08T13:17:33;100835.00;;;
79488;BMP180;68949;53.176;18.088;2023-09-08T13:20:00;100824.80;;;
79488;BMP180;68949;53.176;18.088;2023-09-08T13:22:27;100830.60;;;
79488;BMP180;68949;53.176;18.088;2023-09-08T13:24:54;100823.80;;;
79488;BMP180;68949;53.176;18.088;2023-09-08T13:27:21;100828.00;;;
79488;BMP180;68949;53.176;18.088;2023-09-08T13:29:48;100825.60;;;
79488;BMP180;68949;53.176;18.088;2023-09-08T13:32:15;100828.40;;;
79488;BMP180;68949;53.176;18.088;2023-09-08T13:34:42;100832.80;;;
79488;BMP180;68949;53.176;18.088;2023-09-08T13:37:10;100826.60;;;
79488;BMP180;68949;53.176;18.088;2023-09-08T13:39:36;100820.00;;;
79488;BMP180;68949;53.176;18.088;2023-09-08T13:42:04;100819.00;;;
79488;BMP180;68949;53.176;18.088;2023-09-08T13:44:30;100815.00;;;
79488;BMP180;68949;53.176;18.088;2023-09-08T13:46:57;100813.60;;;
79488;BMP180;68949;53.176;18.088;2023-09-08T13:49:26;100807.20;;;
79488;BMP180;68949;53.176;18.088;2023-09-08T13:51:53;100804.00;;;
79488;BMP180;68949;53.176;18.088;2023-09-08T13:54:21;100810.20;;;
79488;BMP180;68949;53.176;18.088;2023-09-08T13:57:02;100810.80;;;
79488;BMP180;68949;53.176;18.088;2023-09-08T13:59:30;100801.40;;;
79488;BMP180;68949;53.176;18.088;2023-09-08T14:01:57;100808.40;;;
79488;BMP180;68949;53.176;18.088;2023-09-08T14:04:25;100813.20;;;
79488;BMP180;68949;53.176;18.088;2023-09-08T14:06:52;100814.00;;;
79488;BMP180;68949;53.176;18.088;2023-09-08T14:09:18;100807.60;;;
79488;BMP180;68949;53.176;18.088;2023-09-08T14:11:45;100798.20;;;
79488;BMP180;68949;53.176;18.088;2023-09-08T14:14:12;100806.60;;;
79488;BMP180;68949;53.176;18.088;2023-09-08T14:16:39;100800.00;;;
79488;BMP180;68949;53.176;18.088;2023-09-08T14:19:08;100781.40;;;
79488;BMP180;68949;53.176;18.088;2023-09-08T14:21:35;100785.40;;;
79488;BMP180;68949;53.176;18.088;2023-09-08T14:24:03;100780.20;;;
79488;BMP180;68949;53.176;18.088;2023-09-08T14:26:31;100789.60;;;
79488;BMP180;68949;53.176;18.088;2023-09-08T14:29:00;100789.20;;;
79488;BMP180;68949;53.176;18.088;2023-09-08T14:31:27;100797.40;;;
79488;BMP180;68949;53.176;18.088;2023-09-08T14:33:53;100796.20;;;
79488;BMP180;68949;53.176;18.088;2023-09-08T14:36:21;100790.00;;;
79488;BMP180;68949;53.176;18.088;2023-09-08T14:38:48;100790.00;;;
79488;BMP180;68949;53.176;18.088;2023-09-08T14:41:14;100784.80;;;
79488;BMP180;68949;53.176;18.088;2023-09-08T14:43:41;100794.40;;;
79488;BMP180;68949;53.176;18.088;2023-09-08T14:46:08;100795.00;;;
79488;BMP180;68949;53.176;18.088;2023-09-08T14:48:35;100787.80;;;
79488;BMP180;68949;53.176;18.088;2023-09-08T14:51:03;100792.80;;;
79488;BMP180;68949;53.176;18.088;2023-09-08T14:53:32;100795.60;;;
79488;BMP180;68949;53.176;18.088;2023-09-08T14:55:59;100787.60;;;